Eifukumaru No.21 — JD2341 — position and weather

sailwx.info

Track history (hours):
 
Tides and Currents Weather Stations Pressure Air Temp Water Temp Dewpoint Dewpoint Depression Visibility Wind Speed Wind Dir Waves Ship Positions

Eifukumaru No.21

Last reported at 2018-Apr-24 11:37 UTC. Time now 2018-Apr-24 12:44 UTC.
Position N 34°34' E 137°18'.

Length 75 m; draft 4.1 m.

Type: Cargo ship. MMSI: 431200707.

Date/timePositionNaut miles runAvg speedWind from/ knotsBaromVisibWave heightAir tempDewpointWater temp
2018-Apr-24 11:37N 34°34' E 137°18'312.8
2018-Apr-24 11:23N 34°34' E 137°15'1811.5
2018-Apr-24 09:52N 34°38' E 136°54'412.6
2018-Apr-24 09:30N 34°42' E 136°51'612.6
2018-Apr-24 09:00N 34°47' E 136°48'612.4
2018-Apr-24 08:30N 34°54' E 136°47'713.0
2018-Apr-24 08:00N 34°60' E 136°49'2 4.7
2018-Apr-24 07:30N 35°01' E 136°52'0 0.0
2018-Apr-24 00:18N 35°01' E 136°52'2 7.1
2018-Apr-24 00:01N 34°60' E 136°50'713.5
2018-Apr-23 23:30N 34°54' E 136°47'714.5
2018-Apr-23 23:00N 34°46' E 136°49'714.1
2018-Apr-23 22:30N 34°40' E 136°53'1612.1
2018-Apr-23 21:09N 34°33' E 137°11'313.3
2018-Apr-23 20:58N 34°33' E 137°14'3413.5
2018-Apr-23 18:27N 34°34' E 137°55'1713.3
2018-Apr-23 17:09N 34°34' E 138°16'1013.6
2018-Apr-23 16:24N 34°34' E 138°28'613.2
2018-Apr-23 15:57N 34°35' E 138°36'613.3
2018-Apr-23 15:28N 34°35' E 138°43'912.7
2018-Apr-23 14:44N 34°35' E 138°55'412.6
2018-Apr-23 14:24N 34°38' E 138°59'613.7
2018-Apr-23 13:56N 34°42' E 139°04'613.7
2018-Apr-23 13:27N 34°48' E 139°09'713.5
2018-Apr-23 12:58N 34°53' E 139°13'911.4
2018-Apr-23 12:12N 34°58' E 139°22'211.2
2018-Apr-23 12:00N 34°59' E 139°24'612.5
2018-Apr-23 11:30N 35°03' E 139°31'713.5
2018-Apr-23 11:00N 35°06' E 139°38'713.6
2018-Apr-23 10:30N 35°10' E 139°44'612.1
2018-Apr-23 10:00N 35°16' E 139°45'611.8
2018-Apr-23 09:30N 35°22' E 139°42'611.6
2018-Apr-23 09:00N 35°28' E 139°42'3 5.1
2018-Apr-23 08:30N 35°30' E 139°43'0 0.0
2018-Apr-22 22:43N 35°30' E 139°43'0 2.2
2018-Apr-22 22:30N 35°30' E 139°43'3 5.4
2018-Apr-22 22:00N 35°27' E 139°42'0 0.0
2018-Apr-22 21:28N 35°27' E 139°42'0 0.0
2018-Apr-22 20:58N 35°27' E 139°42'0 0.0
2018-Apr-22 20:28N 35°27' E 139°42'0 0.0
2018-Apr-22 19:58N 35°27' E 139°42'0 0.0
2018-Apr-22 19:28N 35°27' E 139°42'0 0.0
2018-Apr-22 18:58N 35°27' E 139°42'0 0.0
2018-Apr-22 18:28N 35°27' E 139°42'0 0.1
2018-Apr-22 17:58N 35°27' E 139°42'0 0.0
2018-Apr-22 17:28N 35°27' E 139°42'0 0.0
2018-Apr-22 16:58N 35°27' E 139°42'0 0.0
2018-Apr-22 16:28N 35°27' E 139°42'0 0.0
2018-Apr-22 15:58N 35°27' E 139°42'0 0.0
2018-Apr-22 15:25N 35°27' E 139°42'0 0.0
2018-Apr-22 14:58N 35°27' E 139°42'0 0.0
2018-Apr-22 14:28N 35°27' E 139°42'0 0.0
2018-Apr-22 13:58N 35°27' E 139°42'0 0.1
2018-Apr-22 13:28N 35°27' E 139°42'0 0.1
2018-Apr-22 12:58N 35°27' E 139°42'0 0.0
2018-Apr-22 12:28N 35°27' E 139°42'0 0.1
2018-Apr-22 11:58N 35°27' E 139°42'0 0.0
2018-Apr-22 11:28N 35°27' E 139°42'0 0.0
2018-Apr-22 10:58N 35°27' E 139°42'0 0.0
2018-Apr-22 10:28N 35°27' E 139°42'0 0.0
2018-Apr-22 09:58N 35°27' E 139°42'0 0.0
2018-Apr-22 09:28N 35°27' E 139°42'0 0.0
2018-Apr-22 08:58N 35°27' E 139°42'0 0.0
2018-Apr-22 08:28N 35°27' E 139°42'0 0.1
2018-Apr-22 07:58N 35°27' E 139°42'0 0.1
2018-Apr-22 07:28N 35°27' E 139°42'0 0.0
2018-Apr-22 06:58N 35°27' E 139°42'0 0.0
2018-Apr-22 06:28N 35°27' E 139°42'0 0.0
2018-Apr-22 05:58N 35°27' E 139°42'0 0.1
2018-Apr-22 05:28N 35°27' E 139°42'0 0.0
2018-Apr-22 04:58N 35°27' E 139°42'0 0.0
2018-Apr-22 04:28N 35°27' E 139°42'0 0.0
2018-Apr-22 03:58N 35°27' E 139°42'0 0.0
2018-Apr-22 03:28N 35°27' E 139°42'0 0.0
2018-Apr-22 02:58N 35°27' E 139°42'0 0.0
2018-Apr-22 02:28N 35°27' E 139°42'0 0.0
2018-Apr-22 01:58N 35°27' E 139°42'0 0.0
2018-Apr-22 01:28N 35°27' E 139°42'0 0.0
2018-Apr-22 00:58N 35°27' E 139°42'0 0.0
2018-Apr-22 00:28N 35°27' E 139°42'0 0.0
2018-Apr-21 23:58N 35°27' E 139°42'0 0.0
2018-Apr-21 23:28N 35°27' E 139°42'0 0.0
2018-Apr-21 22:58N 35°27' E 139°42'0 0.0
2018-Apr-21 22:28N 35°27' E 139°42'0 0.0
2018-Apr-21 21:58N 35°27' E 139°42'0 0.0
2018-Apr-21 21:28N 35°27' E 139°42'0 0.1
2018-Apr-21 20:58N 35°27' E 139°42'0 0.0
2018-Apr-21 20:28N 35°27' E 139°42'0 0.0
2018-Apr-21 19:58N 35°27' E 139°42'0 0.0
2018-Apr-21 19:28N 35°27' E 139°42'0 0.1
2018-Apr-21 18:58N 35°27' E 139°42'0 0.1
2018-Apr-21 18:28N 35°27' E 139°42'0 0.0
2018-Apr-21 17:58N 35°27' E 139°42'0 0.0
2018-Apr-21 17:28N 35°27' E 139°42'0 0.0
2018-Apr-21 16:58N 35°27' E 139°42'0 0.1
2018-Apr-21 16:28N 35°27' E 139°42'0 0.0
2018-Apr-21 15:58N 35°27' E 139°42'0 0.0
2018-Apr-21 15:28N 35°27' E 139°42'0 0.0
2018-Apr-21 14:58N 35°27' E 139°42'0 0.0
2018-Apr-21 14:28N 35°27' E 139°42'0 0.0
2018-Apr-21 13:58N 35°27' E 139°42'0 0.0
2018-Apr-21 13:28N 35°27' E 139°42'0 0.0
2018-Apr-21 12:58N 35°27' E 139°42'0 0.1
2018-Apr-21 12:28N 35°27' E 139°42'0 0.0
2018-Apr-21 11:58N 35°27' E 139°42'0 0.0
2018-Apr-21 11:28N 35°27' E 139°42'0 0.0
2018-Apr-21 10:58N 35°27' E 139°42'0 0.0
2018-Apr-21 10:28N 35°27' E 139°42'0 0.0
2018-Apr-21 09:58N 35°27' E 139°42'0 0.0
2018-Apr-21 09:28N 35°27' E 139°42'0 0.0
2018-Apr-21 08:58N 35°27' E 139°42'0 0.0
2018-Apr-21 08:28N 35°27' E 139°42'0 0.0
2018-Apr-21 07:58N 35°27' E 139°42'0 0.0
2018-Apr-21 07:28N 35°27' E 139°42'0 0.0
2018-Apr-21 06:58N 35°27' E 139°42'0 0.0
2018-Apr-21 06:28N 35°27' E 139°42'0 0.0
2018-Apr-21 05:58N 35°27' E 139°42'0 0.0
2018-Apr-21 05:28N 35°27' E 139°42'0 0.0
2018-Apr-21 04:58N 35°27' E 139°42'0 0.1
2018-Apr-21 04:28N 35°27' E 139°42'0 0.0
2018-Apr-21 03:58N 35°27' E 139°42'0 0.0
2018-Apr-21 03:28N 35°27' E 139°42'0 0.0
2018-Apr-21 02:58N 35°27' E 139°42'0 0.0
2018-Apr-21 02:28N 35°27' E 139°42'0 0.0
2018-Apr-21 01:58N 35°27' E 139°42'0 0.0
2018-Apr-21 01:28N 35°27' E 139°42'0 0.0
2018-Apr-21 00:58N 35°27' E 139°42'0 0.1
2018-Apr-21 00:30N 35°27' E 139°42'4 8.5
2018-Apr-21 00:00N 35°23' E 139°43'612.0
2018-Apr-20 23:30N 35°17' E 139°45'612.2
2018-Apr-20 23:00N 35°11' E 139°46'612.5
2018-Apr-20 22:30N 35°06' E 139°43'612.7
2018-Apr-20 22:00N 35°01' E 139°38'713.3
2018-Apr-20 21:30N 34°57' E 139°31'813.9
2018-Apr-20 20:57N 34°53' E 139°23'714.5
2018-Apr-20 20:26N 34°48' E 139°16'614.5
2018-Apr-20 20:00N 34°44' E 139°10'713.7
2018-Apr-20 19:30N 34°40' E 139°04'713.0
2018-Apr-20 19:00N 34°36' E 138°58'713.8
2018-Apr-20 18:30N 34°34' E 138°49'813.2
2018-Apr-20 17:54N 34°34' E 138°40'512.8
2018-Apr-20 17:30N 34°34' E 138°34'712.8
2018-Apr-20 16:58N 34°34' E 138°25'613.3
2018-Apr-20 16:30N 34°34' E 138°18'713.5
2018-Apr-20 16:00N 34°34' E 138°09'713.4
2018-Apr-20 15:29N 34°35' E 138°01'3313.0
2018-Apr-20 12:58N 34°34' E 137°21'612.9
2018-Apr-20 12:30N 34°33' E 137°14'713.0
2018-Apr-20 12:00N 34°33' E 137°06'611.2
2018-Apr-20 11:30N 34°34' E 136°60'611.9
2018-Apr-20 11:00N 34°38' E 136°54'612.9
2018-Apr-20 10:30N 34°43' E 136°49'613.0
2018-Apr-20 10:00N 34°49' E 136°47'713.2
2018-Apr-20 09:30N 34°56' E 136°47'611.5
2018-Apr-20 09:00N 35°01' E 136°51'1 2.1
2018-Apr-20 08:30N 35°01' E 136°52'0 0.0
2018-Apr-19 22:28N 35°01' E 136°52'0 0.6
2018-Apr-19 21:59N 35°01' E 136°51'0 0.0
2018-Apr-19 21:29N 35°01' E 136°51'0 0.0
2018-Apr-19 20:59N 35°01' E 136°51'0 0.0
2018-Apr-19 20:29N 35°01' E 136°51'0 0.0
2018-Apr-19 19:59N 35°01' E 136°51'0 0.0
2018-Apr-19 19:29N 35°01' E 136°51'0 0.0
2018-Apr-19 18:59N 35°01' E 136°51'0 0.0
2018-Apr-19 18:29N 35°01' E 136°51'0 0.0
2018-Apr-19 17:59N 35°01' E 136°51'0 0.1
2018-Apr-19 17:29N 35°01' E 136°51'1 2.3
2018-Apr-19 17:00N 35°00' E 136°50'713.2
2018-Apr-19 16:30N 34°54' E 136°47'713.1
2018-Apr-19 16:00N 34°48' E 136°48'713.3
2018-Apr-19 15:30N 34°42' E 136°52'5812.3
2018-Apr-19 10:48N 34°34' E 138°02'1013.0
2018-Apr-19 10:04N 34°34' E 138°13'113.1
2018-Apr-19 09:59N 34°34' E 138°15'813.2
2018-Apr-19 09:20N 34°34' E 138°25'512.9
2018-Apr-19 08:58N 34°34' E 138°31'612.9
2018-Apr-19 08:29N 34°34' E 138°39'712.8
2018-Apr-19 07:55N 34°35' E 138°47'612.6
2018-Apr-19 07:26N 34°35' E 138°55'613.5
2018-Apr-19 06:58N 34°39' E 139°01'913.3
2018-Apr-19 06:18N 34°47' E 139°07'612.5
2018-Apr-19 05:48N 34°52' E 139°11'513.0
2018-Apr-19 05:26N 34°56' E 139°14'513.0
2018-Apr-19 05:01N 34°60' E 139°19'612.9
2018-Apr-19 04:31N 35°04' E 139°25'713.4
2018-Apr-19 04:00N 35°06' E 139°33'713.5
2018-Apr-19 03:31N 35°07' E 139°41'713.8
2018-Apr-19 03:00N 35°13' E 139°46'612.8
2018-Apr-19 02:30N 35°19' E 139°43'612.9
2018-Apr-19 02:00N 35°25' E 139°42'5 9.5
2018-Apr-19 01:30N 35°30' E 139°43'0 0.0
2018-Apr-18 03:07N 35°30' E 139°43'0 2.6
2018-Apr-18 03:00N 35°30' E 139°43'4 8.9
2018-Apr-18 02:30N 35°26' E 139°45'510.2
2018-Apr-18 02:00N 35°21' E 139°44'510.8
2018-Apr-18 01:30N 35°15' E 139°47'510.7
2018-Apr-18 01:00N 35°10' E 139°46'611.1
2018-Apr-18 00:30N 35°06' E 139°42'611.8
2018-Apr-18 00:00N 35°03' E 139°36'612.3
2018-Apr-17 23:29N 34°59' E 139°29'1011.8
2018-Apr-17 22:38N 34°54' E 139°19'810.9
2018-Apr-17 21:51N 34°49' E 139°11'410.5
2018-Apr-17 21:28N 34°46' E 139°07'510.2
2018-Apr-17 20:56N 34°42' E 139°03'510.0
2018-Apr-17 20:26N 34°38' E 138°59'4 9.0
2018-Apr-17 20:00N 34°35' E 138°56'510.1
2018-Apr-17 19:30N 34°35' E 138°49'810.9
2018-Apr-17 18:48N 34°35' E 138°40'311.2
2018-Apr-17 18:30N 34°35' E 138°36'610.8
2018-Apr-17 17:58N 34°34' E 138°29'710.6
2018-Apr-17 17:20N 34°35' E 138°21'410.4
2018-Apr-17 16:59N 34°34' E 138°16'4810.5
2018-Apr-17 12:26N 34°36' E 137°19'510.6
2018-Apr-17 12:00N 34°35' E 137°13'1710.6
2018-Apr-17 10:22N 34°39' E 136°53'412.0
2018-Apr-17 10:00N 34°42' E 136°50'612.8
2018-Apr-17 09:30N 34°48' E 136°47'713.3
2018-Apr-17 09:00N 34°55' E 136°47'612.4
2018-Apr-17 08:30N 35°00' E 136°50'1 2.6
2018-Apr-17 08:00N 35°01' E 136°52'0 0.0
2018-Apr-17 00:31N 35°01' E 136°52'0 0.0
2018-Apr-17 00:30N 35°01' E 136°52'4 8.8
2018-Apr-17 00:00N 34°58' E 136°48'612.9
2018-Apr-16 23:30N 34°51' E 136°47'612.9
2018-Apr-16 23:00N 34°45' E 136°49'713.0
2018-Apr-16 22:30N 34°40' E 136°54'1512.1
2018-Apr-16 21:15N 34°33' E 137°10'3813.4
2018-Apr-16 18:27N 34°34' E 137°56'1013.4
2018-Apr-16 17:42N 34°34' E 138°08'513.8
2018-Apr-16 17:22N 34°34' E 138°14'514.0
2018-Apr-16 17:00N 34°34' E 138°20'713.9
2018-Apr-16 16:28N 34°34' E 138°29'713.4
2018-Apr-16 15:56N 34°35' E 138°37'813.4
2018-Apr-16 15:21N 34°35' E 138°47'613.0
2018-Apr-16 14:52N 34°35' E 138°54'512.4
2018-Apr-16 14:30N 34°38' E 138°59'613.0
2018-Apr-16 14:00N 34°43' E 139°04'1613.8
2018-Apr-16 12:51N 34°55' E 139°16'512.9
2018-Apr-16 12:30N 34°58' E 139°20'613.0
2018-Apr-16 12:01N 35°02' E 139°27'612.7
2018-Apr-16 11:30N 35°04' E 139°34'713.1
2018-Apr-16 11:00N 35°07' E 139°41'713.4
2018-Apr-16 10:30N 35°12' E 139°46'612.6
2018-Apr-16 10:00N 35°18' E 139°43'612.1
2018-Apr-16 09:31N 35°24' E 139°43'510.4
2018-Apr-16 09:00N 35°30' E 139°43'0 0.0
2018-Apr-15 22:45N 35°30' E 139°43'1 2.9
2018-Apr-15 22:30N 35°29' E 139°43'3 5.6
2018-Apr-15 22:00N 35°26' E 139°43'0 0.0
2018-Apr-15 21:29N 35°26' E 139°43'0 0.0
2018-Apr-15 20:56N 35°26' E 139°43'0 0.0
2018-Apr-15 20:29N 35°26' E 139°43'0 0.0
2018-Apr-15 19:59N 35°26' E 139°43'0 0.0
2018-Apr-15 19:29N 35°26' E 139°43'0 0.0
2018-Apr-15 18:59N 35°26' E 139°43'0 0.0
2018-Apr-15 18:29N 35°26' E 139°43'0 0.0
2018-Apr-15 17:59N 35°26' E 139°43'0 0.0
2018-Apr-15 17:29N 35°26' E 139°43'0 0.0
2018-Apr-15 16:59N 35°26' E 139°43'0 0.0
2018-Apr-15 16:29N 35°26' E 139°43'0 0.0
2018-Apr-15 15:59N 35°26' E 139°43'0 0.0
2018-Apr-15 15:29N 35°26' E 139°43'0 0.0
2018-Apr-15 14:59N 35°26' E 139°43'0 0.0
2018-Apr-15 14:29N 35°26' E 139°43'0 0.0
2018-Apr-15 13:59N 35°26' E 139°43'0 0.0
2018-Apr-15 13:26N 35°26' E 139°43'0 0.0
2018-Apr-15 12:59N 35°26' E 139°43'0 0.0
2018-Apr-15 12:29N 35°26' E 139°43'0 0.0
2018-Apr-15 11:59N 35°26' E 139°43'0 0.0
2018-Apr-15 11:29N 35°26' E 139°43'0 0.0
2018-Apr-15 10:59N 35°27' E 139°43'0 0.0
2018-Apr-15 10:29N 35°27' E 139°43'0 0.0
2018-Apr-15 09:59N 35°27' E 139°43'0 0.1
2018-Apr-15 09:29N 35°27' E 139°43'0 0.0
2018-Apr-15 08:59N 35°27' E 139°43'0 0.0
2018-Apr-15 08:29N 35°27' E 139°43'0 0.0
2018-Apr-15 07:56N 35°27' E 139°43'0 0.1
2018-Apr-15 07:29N 35°27' E 139°43'2 3.3
2018-Apr-15 07:00N 35°25' E 139°42'611.5
2018-Apr-15 06:31N 35°20' E 139°41'0 0.2
2018-Apr-15 06:00N 35°20' E 139°41'0 0.0
2018-Apr-15 05:30N 35°20' E 139°41'0 0.0
2018-Apr-15 05:00N 35°20' E 139°41'0 0.0
2018-Apr-15 04:30N 35°20' E 139°41'0 0.0
2018-Apr-15 04:00N 35°20' E 139°41'0 0.0
2018-Apr-15 03:30N 35°20' E 139°41'0 0.1
2018-Apr-15 03:00N 35°20' E 139°41'0 0.0
2018-Apr-15 02:30N 35°20' E 139°41'0 0.0
2018-Apr-15 02:00N 35°20' E 139°41'0 0.0
2018-Apr-15 01:30N 35°20' E 139°41'0 0.0
2018-Apr-15 01:00N 35°20' E 139°41'0 0.0
2018-Apr-15 00:30N 35°20' E 139°41'0 0.0
2018-Apr-15 00:00N 35°20' E 139°41'0 0.0
2018-Apr-14 23:30N 35°20' E 139°41'0 0.0
2018-Apr-14 23:00N 35°20' E 139°41'0 0.0
2018-Apr-14 22:30N 35°20' E 139°41'0 0.0
2018-Apr-14 22:00N 35°20' E 139°41'0 0.1
2018-Apr-14 21:30N 35°20' E 139°41'0 0.1
2018-Apr-14 21:00N 35°20' E 139°41'0 0.0
2018-Apr-14 20:30N 35°20' E 139°41'0 0.0
2018-Apr-14 20:00N 35°20' E 139°41'0 0.0
2018-Apr-14 19:30N 35°20' E 139°41'0 0.0
2018-Apr-14 19:00N 35°20' E 139°41'0 0.0
2018-Apr-14 18:30N 35°20' E 139°41'0 0.0
2018-Apr-14 18:00N 35°20' E 139°41'0 0.1
2018-Apr-14 17:30N 35°20' E 139°41'0 0.0
2018-Apr-14 17:00N 35°20' E 139°41'0 0.0
2018-Apr-14 16:30N 35°20' E 139°41'0 0.1
2018-Apr-14 16:00N 35°20' E 139°41'0 0.0
2018-Apr-14 15:30N 35°20' E 139°41'0 0.0
2018-Apr-14 15:00N 35°20' E 139°41'0 0.0
2018-Apr-14 14:30N 35°20' E 139°41'0 0.0
2018-Apr-14 14:00N 35°20' E 139°41'0 0.0
2018-Apr-14 13:30N 35°20' E 139°41'0 0.0
2018-Apr-14 13:00N 35°20' E 139°41'0 0.0
2018-Apr-14 12:30N 35°20' E 139°41'0 0.0
2018-Apr-14 12:00N 35°20' E 139°41'  
Track history (hours):
 
Tides and Currents Weather Stations Pressure Air Temp Water Temp Dewpoint Dewpoint Depression Visibility Wind Speed Wind Dir Waves Ship Positions

Eifukumaru No.21

Last reported at 2018-Apr-24 11:37 UTC. Time now 2018-Apr-24 12:44 UTC.
Position N 34°34' E 137°18'.

Length 75 m; draft 4.1 m.

Type: Cargo ship. MMSI: 431200707.

Date/timePositionNaut miles runAvg speedWind from/ knotsBaromVisibWave heightAir tempDewpointWater temp
2018-Apr-24 11:37N 34°34' E 137°18'312.8
2018-Apr-24 11:23N 34°34' E 137°15'1811.5
2018-Apr-24 09:52N 34°38' E 136°54'412.6
2018-Apr-24 09:30N 34°42' E 136°51'612.6
2018-Apr-24 09:00N 34°47' E 136°48'612.4
2018-Apr-24 08:30N 34°54' E 136°47'713.0
2018-Apr-24 08:00N 34°60' E 136°49'2 4.7
2018-Apr-24 07:30N 35°01' E 136°52'0 0.0
2018-Apr-24 00:18N 35°01' E 136°52'2 7.1
2018-Apr-24 00:01N 34°60' E 136°50'713.5
2018-Apr-23 23:30N 34°54' E 136°47'714.5
2018-Apr-23 23:00N 34°46' E 136°49'714.1
2018-Apr-23 22:30N 34°40' E 136°53'1612.1
2018-Apr-23 21:09N 34°33' E 137°11'313.3
2018-Apr-23 20:58N 34°33' E 137°14'3413.5
2018-Apr-23 18:27N 34°34' E 137°55'1713.3
2018-Apr-23 17:09N 34°34' E 138°16'1013.6
2018-Apr-23 16:24N 34°34' E 138°28'613.2
2018-Apr-23 15:57N 34°35' E 138°36'613.3
2018-Apr-23 15:28N 34°35' E 138°43'912.7
2018-Apr-23 14:44N 34°35' E 138°55'412.6
2018-Apr-23 14:24N 34°38' E 138°59'613.7
2018-Apr-23 13:56N 34°42' E 139°04'613.7
2018-Apr-23 13:27N 34°48' E 139°09'713.5
2018-Apr-23 12:58N 34°53' E 139°13'911.4
2018-Apr-23 12:12N 34°58' E 139°22'211.2
2018-Apr-23 12:00N 34°59' E 139°24'612.5
2018-Apr-23 11:30N 35°03' E 139°31'713.5
2018-Apr-23 11:00N 35°06' E 139°38'713.6
2018-Apr-23 10:30N 35°10' E 139°44'612.1
2018-Apr-23 10:00N 35°16' E 139°45'611.8
2018-Apr-23 09:30N 35°22' E 139°42'611.6
2018-Apr-23 09:00N 35°28' E 139°42'3 5.1
2018-Apr-23 08:30N 35°30' E 139°43'0 0.0
2018-Apr-22 22:43N 35°30' E 139°43'0 2.2
2018-Apr-22 22:30N 35°30' E 139°43'3 5.4
2018-Apr-22 22:00N 35°27' E 139°42'0 0.0
2018-Apr-22 21:28N 35°27' E 139°42'0 0.0
2018-Apr-22 20:58N 35°27' E 139°42'0 0.0
2018-Apr-22 20:28N 35°27' E 139°42'0 0.0
2018-Apr-22 19:58N 35°27' E 139°42'0 0.0
2018-Apr-22 19:28N 35°27' E 139°42'0 0.0
2018-Apr-22 18:58N 35°27' E 139°42'0 0.0
2018-Apr-22 18:28N 35°27' E 139°42'0 0.1
2018-Apr-22 17:58N 35°27' E 139°42'0 0.0
2018-Apr-22 17:28N 35°27' E 139°42'0 0.0
2018-Apr-22 16:58N 35°27' E 139°42'0 0.0
2018-Apr-22 16:28N 35°27' E 139°42'0 0.0
2018-Apr-22 15:58N 35°27' E 139°42'0 0.0
2018-Apr-22 15:25N 35°27' E 139°42'0 0.0
2018-Apr-22 14:58N 35°27' E 139°42'0 0.0
2018-Apr-22 14:28N 35°27' E 139°42'0 0.0
2018-Apr-22 13:58N 35°27' E 139°42'0 0.1
2018-Apr-22 13:28N 35°27' E 139°42'0 0.1
2018-Apr-22 12:58N 35°27' E 139°42'0 0.0
2018-Apr-22 12:28N 35°27' E 139°42'0 0.1
2018-Apr-22 11:58N 35°27' E 139°42'0 0.0
2018-Apr-22 11:28N 35°27' E 139°42'0 0.0
2018-Apr-22 10:58N 35°27' E 139°42'0 0.0
2018-Apr-22 10:28N 35°27' E 139°42'0 0.0
2018-Apr-22 09:58N 35°27' E 139°42'0 0.0
2018-Apr-22 09:28N 35°27' E 139°42'0 0.0
2018-Apr-22 08:58N 35°27' E 139°42'0 0.0
2018-Apr-22 08:28N 35°27' E 139°42'0 0.1
2018-Apr-22 07:58N 35°27' E 139°42'0 0.1
2018-Apr-22 07:28N 35°27' E 139°42'0 0.0
2018-Apr-22 06:58N 35°27' E 139°42'0 0.0
2018-Apr-22 06:28N 35°27' E 139°42'0 0.0
2018-Apr-22 05:58N 35°27' E 139°42'0 0.1
2018-Apr-22 05:28N 35°27' E 139°42'0 0.0
2018-Apr-22 04:58N 35°27' E 139°42'0 0.0
2018-Apr-22 04:28N 35°27' E 139°42'0 0.0
2018-Apr-22 03:58N 35°27' E 139°42'0 0.0
2018-Apr-22 03:28N 35°27' E 139°42'0 0.0
2018-Apr-22 02:58N 35°27' E 139°42'0 0.0
2018-Apr-22 02:28N 35°27' E 139°42'0 0.0
2018-Apr-22 01:58N 35°27' E 139°42'0 0.0
2018-Apr-22 01:28N 35°27' E 139°42'0 0.0
2018-Apr-22 00:58N 35°27' E 139°42'0 0.0
2018-Apr-22 00:28N 35°27' E 139°42'0 0.0
2018-Apr-21 23:58N 35°27' E 139°42'0 0.0
2018-Apr-21 23:28N 35°27' E 139°42'0 0.0
2018-Apr-21 22:58N 35°27' E 139°42'0 0.0
2018-Apr-21 22:28N 35°27' E 139°42'0 0.0
2018-Apr-21 21:58N 35°27' E 139°42'0 0.0
2018-Apr-21 21:28N 35°27' E 139°42'0 0.1
2018-Apr-21 20:58N 35°27' E 139°42'0 0.0
2018-Apr-21 20:28N 35°27' E 139°42'0 0.0
2018-Apr-21 19:58N 35°27' E 139°42'0 0.0
2018-Apr-21 19:28N 35°27' E 139°42'0 0.1
2018-Apr-21 18:58N 35°27' E 139°42'0 0.1
2018-Apr-21 18:28N 35°27' E 139°42'0 0.0
2018-Apr-21 17:58N 35°27' E 139°42'0 0.0
2018-Apr-21 17:28N 35°27' E 139°42'0 0.0
2018-Apr-21 16:58N 35°27' E 139°42'0 0.1
2018-Apr-21 16:28N 35°27' E 139°42'0 0.0
2018-Apr-21 15:58N 35°27' E 139°42'0 0.0
2018-Apr-21 15:28N 35°27' E 139°42'0 0.0
2018-Apr-21 14:58N 35°27' E 139°42'0 0.0
2018-Apr-21 14:28N 35°27' E 139°42'0 0.0
2018-Apr-21 13:58N 35°27' E 139°42'0 0.0
2018-Apr-21 13:28N 35°27' E 139°42'0 0.0
2018-Apr-21 12:58N 35°27' E 139°42'0 0.1
2018-Apr-21 12:28N 35°27' E 139°42'0 0.0
2018-Apr-21 11:58N 35°27' E 139°42'0 0.0
2018-Apr-21 11:28N 35°27' E 139°42'0 0.0
2018-Apr-21 10:58N 35°27' E 139°42'0 0.0
2018-Apr-21 10:28N 35°27' E 139°42'0 0.0
2018-Apr-21 09:58N 35°27' E 139°42'0 0.0
2018-Apr-21 09:28N 35°27' E 139°42'0 0.0
2018-Apr-21 08:58N 35°27' E 139°42'0 0.0
2018-Apr-21 08:28N 35°27' E 139°42'0 0.0
2018-Apr-21 07:58N 35°27' E 139°42'0 0.0
2018-Apr-21 07:28N 35°27' E 139°42'0 0.0
2018-Apr-21 06:58N 35°27' E 139°42'0 0.0
2018-Apr-21 06:28N 35°27' E 139°42'0 0.0
2018-Apr-21 05:58N 35°27' E 139°42'0 0.0
2018-Apr-21 05:28N 35°27' E 139°42'0 0.0
2018-Apr-21 04:58N 35°27' E 139°42'0 0.1
2018-Apr-21 04:28N 35°27' E 139°42'0 0.0
2018-Apr-21 03:58N 35°27' E 139°42'0 0.0
2018-Apr-21 03:28N 35°27' E 139°42'0 0.0
2018-Apr-21 02:58N 35°27' E 139°42'0 0.0
2018-Apr-21 02:28N 35°27' E 139°42'0 0.0
2018-Apr-21 01:58N 35°27' E 139°42'0 0.0
2018-Apr-21 01:28N 35°27' E 139°42'0 0.0
2018-Apr-21 00:58N 35°27' E 139°42'0 0.1
2018-Apr-21 00:30N 35°27' E 139°42'4 8.5
2018-Apr-21 00:00N 35°23' E 139°43'612.0
2018-Apr-20 23:30N 35°17' E 139°45'612.2
2018-Apr-20 23:00N 35°11' E 139°46'612.5
2018-Apr-20 22:30N 35°06' E 139°43'612.7
2018-Apr-20 22:00N 35°01' E 139°38'713.3
2018-Apr-20 21:30N 34°57' E 139°31'813.9
2018-Apr-20 20:57N 34°53' E 139°23'714.5
2018-Apr-20 20:26N 34°48' E 139°16'614.5
2018-Apr-20 20:00N 34°44' E 139°10'713.7
2018-Apr-20 19:30N 34°40' E 139°04'713.0
2018-Apr-20 19:00N 34°36' E 138°58'713.8
2018-Apr-20 18:30N 34°34' E 138°49'813.2
2018-Apr-20 17:54N 34°34' E 138°40'512.8
2018-Apr-20 17:30N 34°34' E 138°34'712.8
2018-Apr-20 16:58N 34°34' E 138°25'613.3
2018-Apr-20 16:30N 34°34' E 138°18'713.5
2018-Apr-20 16:00N 34°34' E 138°09'713.4
2018-Apr-20 15:29N 34°35' E 138°01'3313.0
2018-Apr-20 12:58N 34°34' E 137°21'612.9
2018-Apr-20 12:30N 34°33' E 137°14'713.0
2018-Apr-20 12:00N 34°33' E 137°06'611.2
2018-Apr-20 11:30N 34°34' E 136°60'611.9
2018-Apr-20 11:00N 34°38' E 136°54'612.9
2018-Apr-20 10:30N 34°43' E 136°49'613.0
2018-Apr-20 10:00N 34°49' E 136°47'713.2
2018-Apr-20 09:30N 34°56' E 136°47'611.5
2018-Apr-20 09:00N 35°01' E 136°51'1 2.1
2018-Apr-20 08:30N 35°01' E 136°52'0 0.0
2018-Apr-19 22:28N 35°01' E 136°52'0 0.6
2018-Apr-19 21:59N 35°01' E 136°51'0 0.0
2018-Apr-19 21:29N 35°01' E 136°51'0 0.0
2018-Apr-19 20:59N 35°01' E 136°51'0 0.0
2018-Apr-19 20:29N 35°01' E 136°51'0 0.0
2018-Apr-19 19:59N 35°01' E 136°51'0 0.0
2018-Apr-19 19:29N 35°01' E 136°51'0 0.0
2018-Apr-19 18:59N 35°01' E 136°51'0 0.0
2018-Apr-19 18:29N 35°01' E 136°51'0 0.0
2018-Apr-19 17:59N 35°01' E 136°51'0 0.1
2018-Apr-19 17:29N 35°01' E 136°51'1 2.3
2018-Apr-19 17:00N 35°00' E 136°50'713.2
2018-Apr-19 16:30N 34°54' E 136°47'713.1
2018-Apr-19 16:00N 34°48' E 136°48'713.3
2018-Apr-19 15:30N 34°42' E 136°52'5812.3
2018-Apr-19 10:48N 34°34' E 138°02'1013.0
2018-Apr-19 10:04N 34°34' E 138°13'113.1
2018-Apr-19 09:59N 34°34' E 138°15'813.2
2018-Apr-19 09:20N 34°34' E 138°25'512.9
2018-Apr-19 08:58N 34°34' E 138°31'612.9
2018-Apr-19 08:29N 34°34' E 138°39'712.8
2018-Apr-19 07:55N 34°35' E 138°47'612.6
2018-Apr-19 07:26N 34°35' E 138°55'613.5
2018-Apr-19 06:58N 34°39' E 139°01'913.3
2018-Apr-19 06:18N 34°47' E 139°07'612.5
2018-Apr-19 05:48N 34°52' E 139°11'513.0
2018-Apr-19 05:26N 34°56' E 139°14'513.0
2018-Apr-19 05:01N 34°60' E 139°19'612.9
2018-Apr-19 04:31N 35°04' E 139°25'713.4
2018-Apr-19 04:00N 35°06' E 139°33'713.5
2018-Apr-19 03:31N 35°07' E 139°41'713.8
2018-Apr-19 03:00N 35°13' E 139°46'612.8
2018-Apr-19 02:30N 35°19' E 139°43'612.9
2018-Apr-19 02:00N 35°25' E 139°42'5 9.5
2018-Apr-19 01:30N 35°30' E 139°43'0 0.0
2018-Apr-18 03:07N 35°30' E 139°43'0 2.6
2018-Apr-18 03:00N 35°30' E 139°43'4 8.9
2018-Apr-18 02:30N 35°26' E 139°45'510.2
2018-Apr-18 02:00N 35°21' E 139°44'510.8
2018-Apr-18 01:30N 35°15' E 139°47'510.7
2018-Apr-18 01:00N 35°10' E 139°46'611.1
2018-Apr-18 00:30N 35°06' E 139°42'611.8
2018-Apr-18 00:00N 35°03' E 139°36'612.3
2018-Apr-17 23:29N 34°59' E 139°29'1011.8
2018-Apr-17 22:38N 34°54' E 139°19'810.9
2018-Apr-17 21:51N 34°49' E 139°11'410.5
2018-Apr-17 21:28N 34°46' E 139°07'510.2
2018-Apr-17 20:56N 34°42' E 139°03'510.0
2018-Apr-17 20:26N 34°38' E 138°59'4 9.0
2018-Apr-17 20:00N 34°35' E 138°56'510.1
2018-Apr-17 19:30N 34°35' E 138°49'810.9
2018-Apr-17 18:48N 34°35' E 138°40'311.2
2018-Apr-17 18:30N 34°35' E 138°36'610.8
2018-Apr-17 17:58N 34°34' E 138°29'710.6
2018-Apr-17 17:20N 34°35' E 138°21'410.4
2018-Apr-17 16:59N 34°34' E 138°16'4810.5
2018-Apr-17 12:26N 34°36' E 137°19'510.6
2018-Apr-17 12:00N 34°35' E 137°13'1710.6
2018-Apr-17 10:22N 34°39' E 136°53'412.0
2018-Apr-17 10:00N 34°42' E 136°50'612.8
2018-Apr-17 09:30N 34°48' E 136°47'713.3
2018-Apr-17 09:00N 34°55' E 136°47'612.4
2018-Apr-17 08:30N 35°00' E 136°50'1 2.6
2018-Apr-17 08:00N 35°01' E 136°52'0 0.0
2018-Apr-17 00:31N 35°01' E 136°52'0 0.0
2018-Apr-17 00:30N 35°01' E 136°52'4 8.8
2018-Apr-17 00:00N 34°58' E 136°48'612.9
2018-Apr-16 23:30N 34°51' E 136°47'612.9
2018-Apr-16 23:00N 34°45' E 136°49'713.0
2018-Apr-16 22:30N 34°40' E 136°54'1512.1
2018-Apr-16 21:15N 34°33' E 137°10'3813.4
2018-Apr-16 18:27N 34°34' E 137°56'1013.4
2018-Apr-16 17:42N 34°34' E 138°08'513.8
2018-Apr-16 17:22N 34°34' E 138°14'514.0
2018-Apr-16 17:00N 34°34' E 138°20'713.9
2018-Apr-16 16:28N 34°34' E 138°29'713.4
2018-Apr-16 15:56N 34°35' E 138°37'813.4
2018-Apr-16 15:21N 34°35' E 138°47'613.0
2018-Apr-16 14:52N 34°35' E 138°54'512.4
2018-Apr-16 14:30N 34°38' E 138°59'613.0
2018-Apr-16 14:00N 34°43' E 139°04'1613.8
2018-Apr-16 12:51N 34°55' E 139°16'512.9
2018-Apr-16 12:30N 34°58' E 139°20'613.0
2018-Apr-16 12:01N 35°02' E 139°27'612.7
2018-Apr-16 11:30N 35°04' E 139°34'713.1
2018-Apr-16 11:00N 35°07' E 139°41'713.4
2018-Apr-16 10:30N 35°12' E 139°46'612.6
2018-Apr-16 10:00N 35°18' E 139°43'612.1
2018-Apr-16 09:31N 35°24' E 139°43'510.4
2018-Apr-16 09:00N 35°30' E 139°43'0 0.0
2018-Apr-15 22:45N 35°30' E 139°43'1 2.9
2018-Apr-15 22:30N 35°29' E 139°43'3 5.6
2018-Apr-15 22:00N 35°26' E 139°43'0 0.0
2018-Apr-15 21:29N 35°26' E 139°43'0 0.0
2018-Apr-15 20:56N 35°26' E 139°43'0 0.0
2018-Apr-15 20:29N 35°26' E 139°43'0 0.0
2018-Apr-15 19:59N 35°26' E 139°43'0 0.0
2018-Apr-15 19:29N 35°26' E 139°43'0 0.0
2018-Apr-15 18:59N 35°26' E 139°43'0 0.0
2018-Apr-15 18:29N 35°26' E 139°43'0 0.0
2018-Apr-15 17:59N 35°26' E 139°43'0 0.0
2018-Apr-15 17:29N 35°26' E 139°43'0 0.0
2018-Apr-15 16:59N 35°26' E 139°43'0 0.0
2018-Apr-15 16:29N 35°26' E 139°43'0 0.0
2018-Apr-15 15:59N 35°26' E 139°43'0 0.0
2018-Apr-15 15:29N 35°26' E 139°43'0 0.0
2018-Apr-15 14:59N 35°26' E 139°43'0 0.0
2018-Apr-15 14:29N 35°26' E 139°43'0 0.0
2018-Apr-15 13:59N 35°26' E 139°43'0 0.0
2018-Apr-15 13:26N 35°26' E 139°43'0 0.0
2018-Apr-15 12:59N 35°26' E 139°43'0 0.0
2018-Apr-15 12:29N 35°26' E 139°43'0 0.0
2018-Apr-15 11:59N 35°26' E 139°43'0 0.0
2018-Apr-15 11:29N 35°26' E 139°43'0 0.0
2018-Apr-15 10:59N 35°27' E 139°43'0 0.0
2018-Apr-15 10:29N 35°27' E 139°43'0 0.0
2018-Apr-15 09:59N 35°27' E 139°43'0 0.1
2018-Apr-15 09:29N 35°27' E 139°43'0 0.0
2018-Apr-15 08:59N 35°27' E 139°43'0 0.0
2018-Apr-15 08:29N 35°27' E 139°43'0 0.0
2018-Apr-15 07:56N 35°27' E 139°43'0 0.1
2018-Apr-15 07:29N 35°27' E 139°43'2 3.3
2018-Apr-15 07:00N 35°25' E 139°42'611.5
2018-Apr-15 06:31N 35°20' E 139°41'0 0.2
2018-Apr-15 06:00N 35°20' E 139°41'0 0.0
2018-Apr-15 05:30N 35°20' E 139°41'0 0.0
2018-Apr-15 05:00N 35°20' E 139°41'0 0.0
2018-Apr-15 04:30N 35°20' E 139°41'0 0.0
2018-Apr-15 04:00N 35°20' E 139°41'0 0.0
2018-Apr-15 03:30N 35°20' E 139°41'0 0.1
2018-Apr-15 03:00N 35°20' E 139°41'0 0.0
2018-Apr-15 02:30N 35°20' E 139°41'0 0.0
2018-Apr-15 02:00N 35°20' E 139°41'0 0.0
2018-Apr-15 01:30N 35°20' E 139°41'0 0.0
2018-Apr-15 01:00N 35°20' E 139°41'0 0.0
2018-Apr-15 00:30N 35°20' E 139°41'0 0.0
2018-Apr-15 00:00N 35°20' E 139°41'0 0.0
2018-Apr-14 23:30N 35°20' E 139°41'0 0.0
2018-Apr-14 23:00N 35°20' E 139°41'0 0.0
2018-Apr-14 22:30N 35°20' E 139°41'0 0.0
2018-Apr-14 22:00N 35°20' E 139°41'0 0.1
2018-Apr-14 21:30N 35°20' E 139°41'0 0.1
2018-Apr-14 21:00N 35°20' E 139°41'0 0.0
2018-Apr-14 20:30N 35°20' E 139°41'0 0.0
2018-Apr-14 20:00N 35°20' E 139°41'0 0.0
2018-Apr-14 19:30N 35°20' E 139°41'0 0.0
2018-Apr-14 19:00N 35°20' E 139°41'0 0.0
2018-Apr-14 18:30N 35°20' E 139°41'0 0.0
2018-Apr-14 18:00N 35°20' E 139°41'0 0.1
2018-Apr-14 17:30N 35°20' E 139°41'0 0.0
2018-Apr-14 17:00N 35°20' E 139°41'0 0.0
2018-Apr-14 16:30N 35°20' E 139°41'0 0.1
2018-Apr-14 16:00N 35°20' E 139°41'0 0.0
2018-Apr-14 15:30N 35°20' E 139°41'0 0.0
2018-Apr-14 15:00N 35°20' E 139°41'0 0.0
2018-Apr-14 14:30N 35°20' E 139°41'0 0.0
2018-Apr-14 14:00N 35°20' E 139°41'0 0.0
2018-Apr-14 13:30N 35°20' E 139°41'0 0.0
2018-Apr-14 13:00N 35°20' E 139°41'0 0.0
2018-Apr-14 12:30N 35°20' E 139°41'0 0.0
2018-Apr-14 12:00N 35°20' E 139°41'  

Dump ship's entire track history